createdAt,value
2024-04-21T00:01:22.563Z,84.83
2024-04-21T00:03:49.758Z,85.39
2024-04-21T00:06:16.526Z,84.10
2024-04-21T00:08:43.162Z,83.43
2024-04-21T00:11:10.262Z,83.20
2024-04-21T00:13:37.046Z,84.04
2024-04-21T00:16:04.255Z,83.62
2024-04-21T00:18:30.980Z,83.39
2024-04-21T00:20:57.624Z,83.59
2024-04-21T00:23:24.273Z,83.65
2024-04-21T00:26:00.920Z,83.60
2024-04-21T00:28:31.226Z,84.15
2024-04-21T00:30:58.315Z,84.22
2024-04-21T00:33:25.311Z,84.81
2024-04-21T00:35:51.991Z,85.09
2024-04-21T00:38:18.636Z,85.22
2024-04-21T00:40:45.308Z,85.69
2024-04-21T00:43:12.063Z,85.62
2024-04-21T00:45:42.899Z,85.99
2024-04-21T00:48:10.087Z,86.03
2024-04-21T00:50:40.846Z,86.25
2024-04-21T00:53:10.979Z,86.05
2024-04-21T00:55:39.250Z,84.98
2024-04-21T00:58:08.134Z,84.74
2024-04-21T01:00:36.331Z,84.49
2024-04-21T01:03:03.566Z,84.71
2024-04-21T01:05:30.278Z,84.96
2024-04-21T01:07:57.134Z,84.97
2024-04-21T01:10:23.758Z,83.98
2024-04-21T01:12:50.486Z,83.80
2024-04-21T01:15:17.139Z,82.84
2024-04-21T01:17:43.884Z,83.04
2024-04-21T01:20:13.833Z,83.25
2024-04-21T01:22:47.001Z,83.57
2024-04-21T01:25:13.974Z,83.25
2024-04-21T01:27:40.787Z,83.10
2024-04-21T01:30:08.044Z,83.22
2024-04-21T01:32:34.767Z,83.56
2024-04-21T01:35:01.551Z,83.77
2024-04-21T01:37:29.471Z,83.66
2024-04-21T01:39:56.308Z,83.37
2024-04-21T01:42:22.946Z,83.69
2024-04-21T01:44:49.549Z,84.05
2024-04-21T01:47:16.182Z,83.99
2024-04-21T01:49:42.847Z,83.57
2024-04-21T01:52:09.544Z,83.62
2024-04-21T01:54:36.206Z,83.28
2024-04-21T01:57:03.943Z,83.67
2024-04-21T01:59:30.559Z,83.40
2024-04-21T02:01:57.262Z,83.73
2024-04-21T02:04:24.026Z,83.41
2024-04-21T02:06:51.857Z,83.76
2024-04-21T02:09:18.576Z,83.77
2024-04-21T02:11:45.443Z,83.48
2024-04-21T02:14:12.035Z,83.75
2024-04-21T02:16:38.611Z,83.16
2024-04-21T02:19:10.119Z,83.40
2024-04-21T02:21:37.082Z,83.45
2024-04-21T02:24:03.918Z,83.63
2024-04-21T02:26:30.520Z,83.46
2024-04-21T02:28:57.170Z,83.84
2024-04-21T02:31:23.846Z,83.71
2024-04-21T02:33:50.568Z,83.73
2024-04-21T02:36:18.087Z,83.59
2024-04-21T02:38:44.809Z,83.60
2024-04-21T02:41:11.432Z,83.99
2024-04-21T02:43:38.149Z,84.10
2024-04-21T02:46:06.222Z,85.13
2024-04-21T02:48:33.703Z,85.41
2024-04-21T02:51:00.949Z,86.85
2024-04-21T02:53:27.628Z,88.38
2024-04-21T02:55:54.259Z,89.36
2024-04-21T02:58:20.990Z,89.96
2024-04-21T03:00:47.736Z,90.78
2024-04-21T03:03:14.441Z,91.43
2024-04-21T03:05:41.054Z,91.87
2024-04-21T03:08:08.059Z,92.67
2024-04-21T03:10:34.653Z,92.56
2024-04-21T03:13:01.730Z,92.82
2024-04-21T03:15:28.427Z,93.22
2024-04-21T03:17:55.117Z,93.46
2024-04-21T03:20:21.762Z,93.34
2024-04-21T03:22:48.390Z,93.68
2024-04-21T03:25:15.231Z,93.75
2024-04-21T03:27:41.887Z,93.84
2024-04-21T03:30:08.891Z,94.10
2024-04-21T03:32:35.599Z,94.36
2024-04-21T03:35:02.403Z,94.95
2024-04-21T03:37:29.015Z,94.81
2024-04-21T03:39:55.999Z,94.97
2024-04-21T03:42:22.652Z,95.39
2024-04-21T03:44:49.293Z,95.27
2024-04-21T03:47:15.920Z,95.64
2024-04-21T03:49:42.563Z,95.18
2024-04-21T03:52:09.186Z,95.69
2024-04-21T03:54:35.845Z,96.02
2024-04-21T03:57:06.232Z,96.46
2024-04-21T03:59:33.472Z,96.25
2024-04-21T04:02:01.251Z,96.78
2024-04-21T04:04:28.340Z,96.33
2024-04-21T04:06:55.204Z,96.20
2024-04-21T04:09:21.915Z,96.44
2024-04-21T04:11:48.636Z,96.65
2024-04-21T04:14:15.566Z,96.57
2024-04-21T04:16:42.552Z,96.44
2024-04-21T04:19:10.649Z,96.44
2024-04-21T04:21:37.490Z,96.11
2024-04-21T04:24:04.184Z,95.51
2024-04-21T04:26:30.888Z,94.97
2024-04-21T04:28:57.596Z,94.20
2024-04-21T04:31:24.363Z,94.61
2024-04-21T04:33:51.200Z,94.45
2024-04-21T04:36:18.012Z,94.21
2024-04-21T04:38:44.682Z,93.92
2024-04-21T04:41:11.298Z,94.07
2024-04-21T04:43:38.084Z,93.85
2024-04-21T04:46:05.344Z,94.05
2024-04-21T04:48:34.952Z,94.91
2024-04-21T04:51:02.123Z,94.97
2024-04-21T04:53:28.782Z,95.38
2024-04-21T04:55:55.468Z,95.73
2024-04-21T04:58:22.340Z,96.02
2024-04-21T05:00:49.045Z,96.50
2024-04-21T05:03:15.757Z,97.13
2024-04-21T05:05:42.499Z,97.61
2024-04-21T05:08:09.315Z,98.20
2024-04-21T05:10:36.033Z,98.05
2024-04-21T05:13:02.677Z,98.54
2024-04-21T05:15:29.409Z,98.47
2024-04-21T05:17:56.082Z,98.88
2024-04-21T05:20:23.298Z,98.89
2024-04-21T05:22:51.057Z,99.01
2024-04-21T05:25:17.672Z,99.57
2024-04-21T05:27:44.286Z,99.29
2024-04-21T05:30:11.277Z,99.33
2024-04-21T05:32:38.124Z,99.85
2024-04-21T05:35:05.111Z,100.00
2024-04-21T05:37:31.705Z,100.00
2024-04-21T05:39:58.392Z,100.00
2024-04-21T05:42:25.004Z,100.00
2024-04-21T05:44:52.560Z,99.94
2024-04-21T05:47:19.464Z,99.80
2024-04-21T05:49:46.291Z,100.00
2024-04-21T05:52:15.867Z,100.00
2024-04-21T05:54:42.867Z,100.00
2024-04-21T05:57:09.696Z,100.00
2024-04-21T05:59:36.312Z,100.00
2024-04-21T06:02:03.299Z,100.00
2024-04-21T06:04:32.539Z,100.00
2024-04-21T06:06:59.770Z,100.00
2024-04-21T06:09:27.315Z,100.00
2024-04-21T06:11:54.282Z,99.89
2024-04-21T06:14:21.207Z,100.00
2024-04-21T06:16:47.889Z,99.88
2024-04-21T06:19:14.737Z,99.86
2024-04-21T06:21:41.633Z,99.32
2024-04-21T06:24:08.359Z,98.80
2024-04-21T06:26:35.390Z,98.51
2024-04-21T06:29:02.105Z,98.71
2024-04-21T06:31:28.850Z,98.48
2024-04-21T06:33:55.566Z,98.12
2024-04-21T06:36:22.347Z,97.13
2024-04-21T06:38:48.990Z,96.12
2024-04-21T06:41:15.676Z,96.01
2024-04-21T06:43:42.291Z,96.27
2024-04-21T06:46:09.008Z,96.66
2024-04-21T06:48:35.910Z,96.44
2024-04-21T06:51:02.617Z,96.64
2024-04-21T06:53:34.880Z,96.91
2024-04-21T06:56:02.300Z,97.48
2024-04-21T06:58:28.947Z,97.32
2024-04-21T07:00:55.897Z,96.42
2024-04-21T07:03:22.711Z,96.37
2024-04-21T07:05:49.391Z,96.47
2024-04-21T07:08:16.038Z,96.76
2024-04-21T07:10:43.186Z,96.19
2024-04-21T07:13:09.852Z,96.36
2024-04-21T07:15:37.857Z,95.70
2024-04-21T07:18:04.972Z,95.89
2024-04-21T07:20:31.882Z,95.59
2024-04-21T07:22:58.490Z,94.63
2024-04-21T07:25:26.079Z,92.92
2024-04-21T07:27:53.901Z,90.56
2024-04-21T07:30:20.748Z,87.78
2024-04-21T07:32:47.656Z,86.61
2024-04-21T07:35:14.431Z,85.68
2024-04-21T07:37:41.113Z,85.52
2024-04-21T07:40:08.456Z,83.07
2024-04-21T07:42:35.106Z,82.29
2024-04-21T07:45:01.851Z,80.59
2024-04-21T07:47:29.235Z,80.44
2024-04-21T07:49:55.918Z,81.15
2024-04-21T07:52:22.541Z,79.30
2024-04-21T07:54:50.349Z,80.23
2024-04-21T07:57:17.292Z,78.93
2024-04-21T07:59:44.156Z,76.38
2024-04-21T08:02:10.946Z,75.28
2024-04-21T08:04:37.642Z,76.03
2024-04-21T08:07:05.058Z,76.43
2024-04-21T08:09:32.076Z,77.23
2024-04-21T08:11:59.159Z,77.33
2024-04-21T08:14:25.822Z,76.41
2024-04-21T08:16:52.584Z,78.05
2024-04-21T08:19:19.324Z,78.05
2024-04-21T08:21:47.496Z,78.28
2024-04-21T08:24:14.279Z,78.27
2024-04-21T08:26:43.323Z,77.21
2024-04-21T08:29:09.902Z,76.99
2024-04-21T08:31:36.556Z,77.33
2024-04-21T08:34:04.105Z,77.59
2024-04-21T08:36:30.744Z,75.89
2024-04-21T08:38:57.518Z,74.00
2024-04-21T08:41:27.332Z,72.49
2024-04-21T08:43:57.528Z,71.70
2024-04-21T08:46:24.982Z,69.10
2024-04-21T08:48:51.962Z,69.16
2024-04-21T08:51:18.648Z,69.37
2024-04-21T08:53:45.445Z,69.64
2024-04-21T08:56:22.875Z,69.00
2024-04-21T08:58:51.966Z,70.09
2024-04-21T09:01:20.114Z,69.44
2024-04-21T09:03:52.425Z,70.97
2024-04-21T09:06:25.375Z,70.70
2024-04-21T09:08:55.959Z,70.46
2024-04-21T09:11:23.326Z,70.80
2024-04-21T09:13:50.644Z,70.82
2024-04-21T09:16:17.360Z,71.12
2024-04-21T09:18:44.166Z,69.48
2024-04-21T09:21:11.523Z,69.48
2024-04-21T09:23:41.671Z,68.85
2024-04-21T09:26:09.326Z,68.62
2024-04-21T09:28:36.201Z,69.29
2024-04-21T09:31:02.996Z,69.82
2024-04-21T09:33:30.437Z,71.21
2024-04-21T09:36:00.227Z,72.37
2024-04-21T09:38:26.956Z,71.67
2024-04-21T09:40:56.300Z,70.18
2024-04-21T09:43:23.995Z,68.22
2024-04-21T09:45:51.685Z,68.93
2024-04-21T09:48:19.965Z,67.98
2024-04-21T09:50:47.287Z,67.58
2024-04-21T09:53:15.274Z,63.97
2024-04-21T09:55:48.326Z,64.16
2024-04-21T09:58:16.641Z,65.75
2024-04-21T10:00:48.877Z,66.18
2024-04-21T10:03:17.164Z,66.05
2024-04-21T10:05:44.657Z,66.03
2024-04-21T10:08:12.331Z,65.84
2024-04-21T10:10:41.074Z,64.40
2024-04-21T10:13:08.468Z,63.79
2024-04-21T10:15:36.205Z,64.36
2024-04-21T10:18:03.695Z,64.56
2024-04-21T10:20:35.744Z,63.57
2024-04-21T10:23:10.634Z,63.93
2024-04-21T10:25:39.238Z,61.74
2024-04-21T10:28:07.479Z,63.23
2024-04-21T10:30:35.175Z,62.96
2024-04-21T10:33:04.077Z,62.05
2024-04-21T10:35:37.913Z,59.68
2024-04-21T10:38:09.062Z,57.50
2024-04-21T10:40:38.864Z,55.50
2024-04-21T10:43:06.461Z,56.13
2024-04-21T10:45:33.794Z,57.66
2024-04-21T10:48:01.572Z,59.31
2024-04-21T10:50:28.393Z,58.08
2024-04-21T10:52:55.847Z,56.83
2024-04-21T10:55:22.973Z,56.05
2024-04-21T10:57:49.957Z,54.96
2024-04-21T11:00:16.642Z,55.83
2024-04-21T11:02:43.441Z,56.97
2024-04-21T11:05:10.854Z,56.04
2024-04-21T11:07:37.953Z,55.74
2024-04-21T11:10:05.465Z,56.94
2024-04-21T11:12:33.563Z,58.20
2024-04-21T11:15:01.274Z,58.83
2024-04-21T11:17:28.173Z,58.96
2024-04-21T11:19:55.108Z,60.01
2024-04-21T11:22:22.258Z,59.45
2024-04-21T11:24:49.091Z,60.37
2024-04-21T11:27:17.985Z,59.27
2024-04-21T11:29:47.795Z,59.83
2024-04-21T11:32:16.210Z,60.32
2024-04-21T11:34:45.152Z,59.95
2024-04-21T11:37:22.641Z,60.13
2024-04-21T11:39:49.554Z,60.19
2024-04-21T11:42:16.249Z,60.23
2024-04-21T11:44:43.292Z,58.51
2024-04-21T11:47:09.900Z,59.51
2024-04-21T11:49:36.637Z,60.72
2024-04-21T11:52:03.383Z,60.43
2024-04-21T11:54:29.998Z,59.71
2024-04-21T11:56:56.646Z,59.04
2024-04-21T11:59:24.217Z,59.26
2024-04-21T12:01:51.175Z,59.51
2024-04-21T12:04:18.068Z,58.57
2024-04-21T12:06:44.837Z,59.15
2024-04-21T12:09:11.524Z,59.01
2024-04-21T12:11:38.279Z,58.45
2024-04-21T12:14:29.344Z,59.40
2024-04-21T12:16:56.603Z,59.13
2024-04-21T12:19:23.393Z,57.27
2024-04-21T12:21:50.498Z,57.22
2024-04-21T12:24:17.093Z,56.57
2024-04-21T12:26:43.690Z,56.02
2024-04-21T12:29:10.287Z,56.39
2024-04-21T12:31:37.038Z,56.71
2024-04-21T12:34:03.804Z,57.00
2024-04-21T12:36:30.484Z,56.16
2024-04-21T12:38:57.107Z,55.78
2024-04-21T12:41:23.787Z,54.82
2024-04-21T12:43:50.384Z,53.67
2024-04-21T12:46:17.084Z,54.05
2024-04-21T12:48:43.812Z,56.26
2024-04-21T12:51:10.500Z,56.25
2024-04-21T12:53:37.202Z,56.14
2024-04-21T12:56:04.017Z,56.49
2024-04-21T12:58:30.710Z,55.08
2024-04-21T13:00:57.517Z,54.84
2024-04-21T13:03:24.326Z,54.68
2024-04-21T13:05:50.946Z,54.81
2024-04-21T13:08:17.586Z,54.86
2024-04-21T13:10:44.261Z,54.83
2024-04-21T13:13:10.974Z,55.06
2024-04-21T13:15:37.794Z,53.76
2024-04-21T13:18:04.625Z,53.29
2024-04-21T13:20:32.131Z,53.78
2024-04-21T13:22:59.740Z,53.53
2024-04-21T13:25:26.574Z,54.12
2024-04-21T13:27:53.272Z,53.86
2024-04-21T13:30:19.911Z,52.61
2024-04-21T13:32:46.714Z,53.12
2024-04-21T13:35:13.392Z,54.33
2024-04-21T13:37:42.923Z,54.40
2024-04-21T13:40:10.555Z,54.98
2024-04-21T13:42:40.131Z,55.31
2024-04-21T13:45:08.413Z,56.38
2024-04-21T13:47:35.136Z,57.72
2024-04-21T13:50:02.024Z,60.82
2024-04-21T13:52:28.957Z,61.47
2024-04-21T13:54:55.739Z,61.66
2024-04-21T13:57:23.097Z,61.64
2024-04-21T13:59:50.028Z,61.95
2024-04-21T14:02:17.451Z,61.13
2024-04-21T14:04:44.312Z,62.33
2024-04-21T14:07:11.259Z,61.68
2024-04-21T14:09:38.594Z,62.35
2024-04-21T14:12:05.656Z,62.51
2024-04-21T14:14:32.402Z,62.63
2024-04-21T14:16:59.240Z,63.58
2024-04-21T14:19:25.939Z,63.40
2024-04-21T14:21:52.633Z,62.32
2024-04-21T14:24:19.304Z,62.06
2024-04-21T14:26:45.947Z,61.30
2024-04-21T14:29:12.556Z,60.99
2024-04-21T14:31:39.359Z,59.58
2024-04-21T14:34:06.407Z,59.45
2024-04-21T14:36:34.913Z,58.96
2024-04-21T14:39:02.255Z,59.03
2024-04-21T14:41:28.962Z,62.25
2024-04-21T14:43:56.674Z,64.82
2024-04-21T14:46:24.742Z,65.52
2024-04-21T14:48:51.542Z,65.38
2024-04-21T14:51:18.153Z,64.87
2024-04-21T14:53:44.869Z,65.89
2024-04-21T14:56:13.755Z,66.24
2024-04-21T14:58:40.506Z,66.48
2024-04-21T15:01:07.335Z,66.88
2024-04-21T15:03:36.063Z,66.27
2024-04-21T15:06:02.864Z,65.48
2024-04-21T15:08:29.930Z,65.45
2024-04-21T15:10:56.815Z,64.84
2024-04-21T15:13:23.496Z,64.78
2024-04-21T15:15:51.291Z,66.29
2024-04-21T15:18:18.147Z,66.37
2024-04-21T15:20:48.404Z,67.63
2024-04-21T15:23:15.302Z,68.00
2024-04-21T15:25:44.443Z,68.41
2024-04-21T15:28:11.812Z,67.94
2024-04-21T15:30:38.520Z,69.17
2024-04-21T15:33:05.634Z,65.63
2024-04-21T15:35:32.471Z,66.63
2024-04-21T15:37:59.099Z,68.01
2024-04-21T15:40:25.812Z,68.68
2024-04-21T15:42:52.493Z,67.46
2024-04-21T15:45:19.490Z,69.80
2024-04-21T15:47:46.257Z,70.89
2024-04-21T15:50:15.784Z,72.63
2024-04-21T15:52:42.691Z,75.08
2024-04-21T15:55:13.144Z,76.86
2024-04-21T15:57:40.083Z,77.79
2024-04-21T16:00:09.189Z,79.62
2024-04-21T16:02:37.650Z,79.79
2024-04-21T16:05:05.191Z,81.04
2024-04-21T16:07:33.265Z,81.72
2024-04-21T16:10:00.399Z,82.63
2024-04-21T16:12:27.087Z,82.34
2024-04-21T16:14:53.791Z,82.65
2024-04-21T16:17:23.211Z,83.22
2024-04-21T16:19:49.990Z,84.49
2024-04-21T16:22:16.669Z,83.76
2024-04-21T16:24:43.375Z,85.14
2024-04-21T16:27:10.097Z,85.32
2024-04-21T16:29:36.774Z,86.18
2024-04-21T16:32:05.045Z,85.76
2024-04-21T16:34:32.396Z,85.22
2024-04-21T16:36:59.500Z,85.47
2024-04-21T16:39:26.594Z,85.93
2024-04-21T16:41:53.832Z,86.19
2024-04-21T16:44:21.086Z,86.23
2024-04-21T16:46:50.281Z,86.65
2024-04-21T16:49:27.924Z,87.15
2024-04-21T16:52:01.075Z,86.75
2024-04-21T16:54:28.446Z,86.94
2024-04-21T16:59:37.731Z,87.61
2024-04-21T17:02:04.787Z,87.18
2024-04-21T17:04:31.801Z,86.75
2024-04-21T17:07:02.054Z,86.69
2024-04-21T17:09:28.981Z,87.14
2024-04-21T17:11:55.921Z,87.65
2024-04-21T17:14:23.111Z,87.32
2024-04-21T17:16:49.978Z,88.31
2024-04-21T17:19:16.720Z,88.37
2024-04-21T17:21:43.310Z,88.24
2024-04-21T17:24:09.967Z,88.45
2024-04-21T17:26:36.595Z,88.59
2024-04-21T17:29:03.274Z,88.54
2024-04-21T17:31:30.063Z,88.69
2024-04-21T17:33:57.002Z,88.22
2024-04-21T17:36:23.587Z,88.76
2024-04-21T17:38:50.244Z,88.45
2024-04-21T17:41:17.517Z,88.36
2024-04-21T17:43:44.290Z,88.73
2024-04-21T17:46:10.926Z,88.21
2024-04-21T17:48:38.319Z,87.43
2024-04-21T17:51:04.995Z,87.09
2024-04-21T17:53:31.580Z,87.04
2024-04-21T17:55:58.245Z,86.79
2024-04-21T17:58:25.022Z,86.30
2024-04-21T18:00:51.762Z,86.37
2024-04-21T18:03:18.433Z,86.03
2024-04-21T18:05:46.433Z,85.52
2024-04-21T18:08:13.186Z,85.03
2024-04-21T18:10:39.928Z,84.49
2024-04-21T18:13:06.711Z,84.62
2024-04-21T18:15:33.403Z,83.91
2024-04-21T18:18:00.303Z,83.77
2024-04-21T18:20:27.121Z,83.42
2024-04-21T18:22:54.453Z,82.57
2024-04-21T18:25:21.150Z,82.94
2024-04-21T18:27:47.895Z,82.21
2024-04-21T18:30:14.623Z,82.45
2024-04-21T18:32:41.439Z,82.37
2024-04-21T18:35:09.798Z,81.84
2024-04-21T18:37:36.519Z,82.23
2024-04-21T18:40:06.256Z,82.30
2024-04-21T18:42:33.123Z,81.98
2024-04-21T18:45:01.776Z,82.51
2024-04-21T18:47:29.860Z,82.06
2024-04-21T18:49:57.187Z,81.81
2024-04-21T18:52:24.045Z,81.63
2024-04-21T18:54:50.813Z,81.38
2024-04-21T18:57:17.516Z,81.06
2024-04-21T18:59:44.210Z,81.36
2024-04-21T19:02:13.219Z,81.18
2024-04-21T19:04:40.236Z,80.94
2024-04-21T19:07:06.949Z,81.54
2024-04-21T19:09:34.069Z,81.31
2024-04-21T19:12:01.324Z,81.69
2024-04-21T19:14:28.405Z,81.23
2024-04-21T19:16:55.475Z,81.57
2024-04-21T19:19:22.350Z,81.47
2024-04-21T19:21:49.303Z,81.53
2024-04-21T19:24:16.529Z,81.18
2024-04-21T19:26:43.153Z,81.07
2024-04-21T19:29:11.062Z,81.44
2024-04-21T19:31:37.818Z,81.90
2024-04-21T19:34:05.553Z,82.05
2024-04-21T19:36:32.172Z,82.11
2024-04-21T19:38:58.803Z,82.23
2024-04-21T19:41:25.422Z,81.81
2024-04-21T19:43:52.111Z,82.28
2024-04-21T19:46:18.795Z,82.36
2024-04-21T19:48:50.563Z,82.59
2024-04-21T19:51:18.434Z,83.19
2024-04-21T19:53:45.138Z,83.09
2024-04-21T19:56:12.058Z,83.58
2024-04-21T19:58:38.803Z,83.41
2024-04-21T20:01:05.541Z,83.64
2024-04-21T20:03:32.282Z,83.92
2024-04-21T20:05:58.969Z,83.91
2024-04-21T20:08:25.625Z,84.25
2024-04-21T20:10:52.335Z,84.20
2024-04-21T20:13:19.080Z,84.49
2024-04-21T20:16:12.963Z,84.58
2024-04-21T20:18:44.669Z,84.49
2024-04-21T20:21:11.467Z,84.80
2024-04-21T20:23:38.140Z,84.97
2024-04-21T20:26:07.306Z,84.74
2024-04-21T20:28:34.950Z,85.01
2024-04-21T20:31:01.671Z,84.83
2024-04-21T20:33:28.414Z,84.99
2024-04-21T20:35:55.046Z,84.74
2024-04-21T20:38:21.791Z,84.86
2024-04-21T20:40:48.664Z,84.50
2024-04-21T20:43:15.466Z,84.95
2024-04-21T20:45:42.185Z,84.56
2024-04-21T20:48:08.914Z,84.37
2024-04-21T20:50:35.654Z,84.17
2024-04-21T20:53:02.369Z,84.06
2024-04-21T20:55:31.881Z,84.20
2024-04-21T20:57:58.661Z,84.29
2024-04-21T21:00:25.576Z,84.33
2024-04-21T21:02:52.296Z,84.08
2024-04-21T21:05:18.886Z,84.03
2024-04-21T21:07:45.535Z,84.15
2024-04-21T21:10:12.257Z,84.18
2024-04-21T21:12:38.988Z,84.38
2024-04-21T21:15:07.163Z,84.21
2024-04-21T21:17:33.884Z,84.22
2024-04-21T21:20:00.679Z,84.49
2024-04-21T21:22:27.405Z,84.68
2024-04-21T21:24:54.046Z,84.41
2024-04-21T21:27:20.665Z,84.29
2024-04-21T21:29:47.379Z,84.45
2024-04-21T21:32:14.085Z,84.33
2024-04-21T21:34:42.152Z,84.51
2024-04-21T21:37:08.809Z,84.17
2024-04-21T21:39:37.028Z,84.19
2024-04-21T21:42:06.891Z,84.34
2024-04-21T21:44:33.528Z,84.77
2024-04-21T21:47:00.116Z,84.79
2024-04-21T21:49:26.880Z,85.14
2024-04-21T21:51:53.518Z,84.89
2024-04-21T21:54:20.224Z,85.55
2024-04-21T21:56:46.886Z,85.43
2024-04-21T21:59:13.516Z,85.74
2024-04-21T22:01:40.201Z,85.61
2024-04-21T22:04:06.940Z,85.92
2024-04-21T22:06:33.624Z,85.95
2024-04-21T22:09:00.315Z,86.04
2024-04-21T22:11:27.179Z,86.20
2024-04-21T22:13:53.802Z,86.23
2024-04-21T22:16:20.558Z,86.64
2024-04-21T22:18:47.387Z,86.52
2024-04-21T22:21:14.161Z,86.49
2024-04-21T22:23:40.759Z,86.25
2024-04-21T22:26:07.473Z,86.37
2024-04-21T22:28:34.227Z,86.67
2024-04-21T22:31:07.344Z,86.75
2024-04-21T22:33:34.535Z,86.64
2024-04-21T22:36:02.931Z,86.52
2024-04-21T22:38:29.651Z,86.51
2024-04-21T22:41:04.474Z,86.74
2024-04-21T22:43:32.112Z,86.59
2024-04-21T22:46:03.665Z,87.00
2024-04-21T22:48:31.642Z,86.78
2024-04-21T22:50:58.781Z,86.87
2024-04-21T22:53:25.416Z,86.96
2024-04-21T22:55:52.904Z,86.87
2024-04-21T22:58:20.439Z,87.11
2024-04-21T23:00:48.476Z,87.33
2024-04-21T23:03:15.416Z,87.60
2024-04-21T23:05:42.605Z,87.68
2024-04-21T23:08:10.196Z,88.01
2024-04-21T23:10:40.054Z,87.94
2024-04-21T23:13:08.127Z,88.24
2024-04-21T23:15:35.780Z,88.08
2024-04-21T23:18:02.617Z,88.35
2024-04-21T23:20:29.333Z,88.50
2024-04-21T23:22:56.828Z,88.67
2024-04-21T23:25:23.706Z,88.71
2024-04-21T23:27:50.383Z,88.69
2024-04-21T23:30:17.210Z,88.60
2024-04-21T23:32:43.901Z,88.77
2024-04-21T23:35:10.557Z,88.58
2024-04-21T23:37:37.227Z,88.80
2024-04-21T23:40:05.782Z,89.09
2024-04-21T23:42:33.800Z,89.11
2024-04-21T23:45:00.932Z,88.78
2024-04-21T23:47:27.624Z,89.04
2024-04-21T23:49:54.337Z,89.19
2024-04-21T23:52:21.172Z,89.24
2024-04-21T23:54:47.902Z,89.18
2024-04-21T23:57:14.494Z,88.97
2024-04-21T23:59:41.195Z,89.08
